Phnom Penh, Cambodia
Current Conditions -  °F | °C
As of 1:00 AM on Thursday 29 Jan 2015 (Local Time) from VDPP Reporting Station
Clear Clear  
Wind Chill: 75°   Ceiling: Unl
Heat Index: 75°   Visibility: 5mi
Dew Point: 70°   Wind: 6mph
Humidity: 83%   Direction: 200°SSW
Pressure: 29.85"   Gusts: NA
Location:  11.56°N, 104.92°E
Report Text: VDPP 281800Z 20005KT 8000 NSC 24/21 Q1011
Loading
Personal Weather Stations






























Interactive Weather Map New forecast layout! Learn more

10-Day Weather Forecast

Advertisements
Track Severe Weather on mobile